Skip Navigation Links
NOAA logo - Click to go to the NOAA homepage
NOAA's National Weather Service
Alaska Aviation Weather Unit
  NWS logo - Click to go to the NWS homepage
Left Navbar Graphic     12 AKDT = 20 GMT

   
NOAA is celebrating 200 years of science, service, and stewardship. Visit the NOAA 200th celebration Web site to learn more.
USA.gov is the U.S. Government's official Web portal to all Federal, state and local government Web resources and services.
Facebook
NWS on Facebook

Important Change Regarding the AAWU Web Presence

 

Over the last several months, the AAWU has been working to navigate its webpages to a nationally supported server. Security, as well as other needs, have necessitated the change.  We have been given an extension for the site changeover while we diligently work at addressing feedback received. As of July 14, 2017, aawu.arh.noaa.gov will be discontinued. The new AAWU web address is weather.gov/aawu. It is now live and will run in-parallel with the old site until it is discontinued on July 14, 2017. Please continue to send any feedback or questions regarding the new webpages to nws.ar.aawu.webauthors@noaa.gov.  Thank you for your patience during this time of transition.
AAWU Home :: Display TAF Add Bookmark
TAF PABI 252000Z 2520/2620 VRB06KT 4800 -SHRA BR FEW010 OVC030
      QNH2987INS
      TEMPO 2520/2522 3200 -RA
      BECMG 2602/2603 VRB06KT 9999 NSW SCT025 BKN100 QNH2978INS
      TX15/2602Z TN10/2612Z=

METAR PABI 251453Z 00000KT 10SM FEW020 OVC033 12/12 A3001= METAR PABI 251553Z 00000KT 10SM BKN024 OVC033 12/12 A3001= PABI 251603Z 00000KT 10SM SCT024 OVC033 12/12 A3001= SPECI PABI 251603Z 00000KT 10SM SCT024 OVC033 12/12 A3001 RMK AO2 T01220122= PABI 251621Z 00000KT 10SM -RA BKN024 OVC031 12/12 A3000= SPECI PABI 251621Z 00000KT 10SM -RA BKN024 OVC031 12/12 A3000 RMK AO2 RAB14 P0000 T01220117= METAR PABI 251653Z 00000KT 10SM -RA OVC024 12/12 A3000= PABI 251724Z 34003KT 10SM SCT025 OVC032 12/12 A3000= SPECI PABI 251724Z 34003KT 10SM SCT025 OVC032 12/12 A3000 RMK AO2 RAE24 P0000 T01170117= METAR PABI 251753Z 00000KT 8SM -RA FEW032 OVC047 12/12 A3000= METAR PABI 251853Z 00000KT 2SM -RA BR BKN030 OVC050 12/12 A2999= PABI 251900Z 00000KT 2SM -RA BR SCT005 SCT010 OVC030 12/12 A2999= SPECI PABI 251900Z 00000KT 2SM -RA BR SCT005 SCT010 OVC030 12/12 A2999 RMK AO2 P0000 T01220122= SPECI PABI 251934Z 00000KT 3SM -RA BR FEW005 SCT010 OVC030 12/12 A2999 RMK AO2 P0000 T01220122= METAR PABI 251953Z 00000KT 3SM -RA BR FEW005 SCT015 OVC035 13/12 A2998= SPECI PABI 252026Z 09004KT 6SM -RA BR FEW005 BKN015 OVC035 13/12 A2998 RMK AO2 P0000 T01280122=
 Alaska TAF Map

NOAA's National Weather Service
Alaska Aviation Weather Unit
6930 Sand Lake Road
Anchorage, AK 99502-1845
Disclaimer
Credits
Glossary
Privacy Policy
About Us
Career Opportunities
Contact AAWU Internet Services Site last modified: April, 17th 2012